createdAt,value
2018-09-17T00:01:35.562Z,12.90
2018-09-17T00:04:59.993Z,12.90
2018-09-17T00:08:24.420Z,12.80
2018-09-17T00:11:48.872Z,12.80
2018-09-17T00:15:13.337Z,12.70
2018-09-17T00:18:37.774Z,12.70
2018-09-17T00:22:02.219Z,12.70
2018-09-17T00:25:26.820Z,12.60
2018-09-17T00:28:51.326Z,12.60
2018-09-17T00:32:15.741Z,12.60
2018-09-17T00:35:40.209Z,12.50
2018-09-17T00:39:06.657Z,12.50
2018-09-17T00:42:31.104Z,12.40
2018-09-17T00:45:55.598Z,12.40
2018-09-17T00:49:20.003Z,12.40
2018-09-17T00:52:44.509Z,12.30
2018-09-17T00:56:08.985Z,12.30
2018-09-17T00:59:33.420Z,12.30
2018-09-17T01:02:57.858Z,12.20
2018-09-17T01:06:22.356Z,12.20
2018-09-17T01:09:46.800Z,12.20
2018-09-17T01:13:11.216Z,12.10
2018-09-17T01:16:35.634Z,12.10
2018-09-17T01:20:00.033Z,12.10
2018-09-17T01:23:24.459Z,12.10
2018-09-17T01:26:48.869Z,12.10
2018-09-17T01:30:13.319Z,12.00
2018-09-17T01:33:37.772Z,12.00
2018-09-17T01:37:02.213Z,12.00
2018-09-17T01:40:26.641Z,12.00
2018-09-17T01:43:51.081Z,12.00
2018-09-17T01:47:15.512Z,12.00
2018-09-17T01:50:39.912Z,12.00
2018-09-17T01:54:04.477Z,12.20
2018-09-17T01:57:29.615Z,12.30
2018-09-17T02:00:54.044Z,12.30
2018-09-17T02:04:18.492Z,12.30
2018-09-17T02:07:42.960Z,12.30
2018-09-17T02:11:07.419Z,12.50
2018-09-17T02:14:31.859Z,12.50
2018-09-17T02:17:56.284Z,12.60
2018-09-17T02:21:20.738Z,12.70
2018-09-17T02:24:45.211Z,12.70
2018-09-17T02:28:09.617Z,12.80
2018-09-17T02:31:34.054Z,12.90
2018-09-17T02:34:58.507Z,12.80
2018-09-17T02:38:22.879Z,12.90
2018-09-17T02:41:47.315Z,12.90
2018-09-17T02:45:11.768Z,12.90
2018-09-17T02:48:36.319Z,12.90
2018-09-17T02:52:00.753Z,12.90
2018-09-17T02:55:25.237Z,12.90
2018-09-17T02:58:49.736Z,12.80
2018-09-17T03:02:14.126Z,12.70
2018-09-17T03:05:38.618Z,12.70
2018-09-17T03:09:03.153Z,12.60
2018-09-17T03:12:27.604Z,12.60
2018-09-17T03:15:55.033Z,12.50
2018-09-17T03:19:19.479Z,12.40
2018-09-17T03:22:43.928Z,12.30
2018-09-17T03:26:08.403Z,12.40
2018-09-17T03:29:32.841Z,12.40
2018-09-17T03:32:57.395Z,12.40
2018-09-17T03:36:21.824Z,12.40
2018-09-17T03:39:46.236Z,12.30
2018-09-17T03:43:10.657Z,12.30
2018-09-17T03:46:35.152Z,12.30
2018-09-17T03:49:59.521Z,12.20
2018-09-17T03:53:23.939Z,12.10
2018-09-17T03:56:48.428Z,12.00
2018-09-17T04:00:12.832Z,12.10
2018-09-17T04:03:37.278Z,12.00
2018-09-17T04:07:01.700Z,12.00
2018-09-17T04:10:32.259Z,12.00
2018-09-17T04:13:56.790Z,12.00
2018-09-17T04:17:21.226Z,11.90
2018-09-17T04:20:45.671Z,11.90
2018-09-17T04:24:10.088Z,11.90
2018-09-17T04:27:34.544Z,11.80
2018-09-17T04:32:36.561Z,11.80
2018-09-17T04:36:01.005Z,11.70
2018-09-17T04:39:26.674Z,11.70
2018-09-17T04:42:51.074Z,11.70
2018-09-17T04:46:15.568Z,11.70
2018-09-17T04:49:40.068Z,11.70
2018-09-17T04:53:04.660Z,11.80
2018-09-17T04:56:29.203Z,11.90
2018-09-17T04:59:54.085Z,11.90
2018-09-17T05:03:18.563Z,11.90
2018-09-17T05:06:43.227Z,12.00
2018-09-17T05:10:07.983Z,12.00
2018-09-17T05:13:32.498Z,12.00
2018-09-17T05:16:56.951Z,12.00
2018-09-17T05:20:21.400Z,12.00
2018-09-17T05:23:45.829Z,12.00
2018-09-17T05:27:10.257Z,12.00
2018-09-17T05:30:34.681Z,12.00
2018-09-17T05:33:59.139Z,11.90
2018-09-17T05:37:23.579Z,11.80
2018-09-17T05:40:48.016Z,11.90
2018-09-17T05:44:12.530Z,11.80
2018-09-17T05:47:36.997Z,11.80
2018-09-17T05:51:01.610Z,11.80
2018-09-17T05:54:26.087Z,11.90
2018-09-17T05:57:50.594Z,11.90
2018-09-17T06:01:14.980Z,12.00
2018-09-17T06:04:39.419Z,12.10
2018-09-17T06:08:05.165Z,12.20
2018-09-17T06:11:29.726Z,12.30
2018-09-17T06:14:54.203Z,12.40
2018-09-17T06:18:18.730Z,12.40
2018-09-17T06:21:43.133Z,12.50
2018-09-17T06:25:07.606Z,12.50
2018-09-17T06:28:32.692Z,12.60
2018-09-17T06:31:57.205Z,12.70
2018-09-17T06:35:21.622Z,12.80
2018-09-17T06:38:46.112Z,12.90
2018-09-17T06:42:10.541Z,13.00
2018-09-17T06:45:35.015Z,13.10
2018-09-17T06:48:59.461Z,13.20
2018-09-17T06:52:23.903Z,13.40
2018-09-17T06:55:48.310Z,13.50
2018-09-17T06:59:12.710Z,13.50
2018-09-17T07:02:37.124Z,13.70
2018-09-17T07:06:01.542Z,13.80
2018-09-17T07:09:25.989Z,13.90
2018-09-17T07:12:50.406Z,14.00
2018-09-17T07:16:14.828Z,14.10
2018-09-17T07:19:39.220Z,14.30
2018-09-17T07:23:03.677Z,14.40
2018-09-17T07:26:28.128Z,14.60
2018-09-17T07:29:52.633Z,14.70
2018-09-17T07:33:17.090Z,14.90
2018-09-17T07:36:41.524Z,15.20
2018-09-17T07:40:05.941Z,15.40
2018-09-17T07:43:30.396Z,15.60
2018-09-17T07:46:54.844Z,15.70
2018-09-17T07:50:19.283Z,15.90
2018-09-17T07:53:43.767Z,16.10
2018-09-17T07:57:08.229Z,16.30
2018-09-17T08:00:32.678Z,16.40
2018-09-17T08:03:57.126Z,16.60
2018-09-17T08:07:21.599Z,16.70
2018-09-17T08:10:46.006Z,16.90
2018-09-17T08:14:10.473Z,17.00
2018-09-17T08:17:34.925Z,17.10
2018-09-17T08:20:59.378Z,17.20
2018-09-17T08:24:23.830Z,17.30
2018-09-17T08:27:48.277Z,17.40
2018-09-17T08:31:12.700Z,17.50
2018-09-17T08:34:37.139Z,17.70
2018-09-17T08:38:01.628Z,17.90
2018-09-17T08:41:26.161Z,18.10
2018-09-17T08:44:50.598Z,18.20
2018-09-17T08:48:15.034Z,18.40
2018-09-17T08:51:39.501Z,18.60
2018-09-17T08:55:09.060Z,18.60
2018-09-17T08:58:39.848Z,18.60
2018-09-17T09:02:09.314Z,18.70
2018-09-17T09:05:34.819Z,18.80
2018-09-17T09:08:59.229Z,18.90
2018-09-17T09:12:30.710Z,19.30
2018-09-17T09:15:55.166Z,19.50
2018-09-17T09:19:19.561Z,19.70
2018-09-17T09:22:43.960Z,19.80
2018-09-17T09:26:08.401Z,20.00
2018-09-17T09:29:32.877Z,20.10
2018-09-17T09:32:57.381Z,20.30
2018-09-17T09:36:21.799Z,20.60
2018-09-17T09:39:46.234Z,21.00
2018-09-17T09:43:10.648Z,21.50
2018-09-17T09:46:35.071Z,22.20
2018-09-17T09:49:59.444Z,23.00
2018-09-17T09:53:23.844Z,23.90
2018-09-17T09:56:48.279Z,24.50
2018-09-17T10:00:17.878Z,25.30
2018-09-17T10:03:44.146Z,25.80
2018-09-17T10:07:08.563Z,25.90
2018-09-17T10:10:38.008Z,25.70
2018-09-17T10:14:07.449Z,26.80
2018-09-17T10:17:37.031Z,27.70
2018-09-17T10:21:01.428Z,28.50
2018-09-17T10:24:25.854Z,28.80
2018-09-17T10:27:50.303Z,29.70
2018-09-17T10:31:14.873Z,29.80
2018-09-17T10:34:39.300Z,29.50
2018-09-17T10:38:03.708Z,29.40
2018-09-17T10:41:28.117Z,29.50
2018-09-17T10:44:52.574Z,29.70
2018-09-17T10:48:17.013Z,29.80
2018-09-17T10:51:41.468Z,29.70
2018-09-17T10:55:05.899Z,29.70
2018-09-17T10:58:30.358Z,30.10
2018-09-17T11:01:54.764Z,30.30
2018-09-17T11:05:19.210Z,30.70
2018-09-17T11:08:46.620Z,30.90
2018-09-17T11:12:11.076Z,30.80
2018-09-17T11:15:40.641Z,30.20
2018-09-17T11:19:05.207Z,30.40
2018-09-17T11:22:29.638Z,30.80
2018-09-17T11:25:54.098Z,31.30
2018-09-17T11:29:18.619Z,31.50
2018-09-17T11:32:43.044Z,31.40
2018-09-17T11:36:07.584Z,30.90
2018-09-17T11:39:32.106Z,31.00
2018-09-17T11:42:56.555Z,31.40
2018-09-17T11:46:20.970Z,31.30
2018-09-17T11:49:45.381Z,31.40
2018-09-17T11:53:09.917Z,31.70
2018-09-17T11:56:34.463Z,32.50
2018-09-17T11:59:58.884Z,32.90
2018-09-17T12:03:28.501Z,32.70
2018-09-17T12:06:58.128Z,33.00
2018-09-17T12:10:22.566Z,32.90
2018-09-17T12:13:47.043Z,32.40
2018-09-17T12:17:11.466Z,32.70
2018-09-17T12:20:35.951Z,33.60
2018-09-17T12:24:00.421Z,33.70
2018-09-17T12:27:25.026Z,33.80
2018-09-17T12:30:55.773Z,33.90
2018-09-17T12:34:20.225Z,34.20
2018-09-17T12:37:44.632Z,35.30
2018-09-17T12:41:09.072Z,36.40
2018-09-17T12:44:33.558Z,36.40
2018-09-17T12:47:57.982Z,36.10
2018-09-17T12:51:22.401Z,36.40
2018-09-17T12:54:46.897Z,36.80
2018-09-17T12:58:11.338Z,36.30
2018-09-17T13:01:35.767Z,36.60
2018-09-17T13:05:00.261Z,36.90
2018-09-17T13:08:24.683Z,36.60
2018-09-17T13:11:49.199Z,36.50
2018-09-17T13:15:13.578Z,36.40
2018-09-17T13:18:38.144Z,36.90
2018-09-17T13:22:02.688Z,36.20
2018-09-17T13:25:29.797Z,35.20
2018-09-17T13:28:54.407Z,34.10
2018-09-17T13:32:18.820Z,33.20
2018-09-17T13:35:43.285Z,33.60
2018-09-17T13:39:08.304Z,33.20
2018-09-17T13:42:32.862Z,33.60
2018-09-17T13:45:59.366Z,34.00
2018-09-17T13:49:23.879Z,34.40
2018-09-17T13:52:48.461Z,35.40
2018-09-17T13:56:12.982Z,35.60
2018-09-17T13:59:37.500Z,36.40
2018-09-17T14:03:02.275Z,37.30
2018-09-17T14:06:26.737Z,37.10
2018-09-17T14:09:51.786Z,37.50
2018-09-17T14:13:16.273Z,37.60
2018-09-17T14:16:41.553Z,37.60
2018-09-17T14:20:06.074Z,37.80
2018-09-17T14:23:30.576Z,38.00
2018-09-17T14:26:55.871Z,38.50
2018-09-17T14:30:21.132Z,38.90
2018-09-17T14:33:45.563Z,39.30
2018-09-17T14:37:10.106Z,39.70
2018-09-17T14:40:34.571Z,40.30
2018-09-17T14:43:59.045Z,41.70
2018-09-17T14:47:23.471Z,42.60
2018-09-17T14:50:47.934Z,42.30
2018-09-17T14:54:12.406Z,42.30
2018-09-17T14:57:36.821Z,42.60
2018-09-17T15:01:01.326Z,42.10
2018-09-17T15:04:25.812Z,43.40
2018-09-17T15:07:50.384Z,42.90
2018-09-17T15:11:14.875Z,43.70
2018-09-17T15:14:39.336Z,43.70
2018-09-17T15:18:03.832Z,43.90
2018-09-17T15:21:28.348Z,43.80
2018-09-17T15:24:53.151Z,43.30
2018-09-17T15:28:17.787Z,43.50
2018-09-17T15:31:42.144Z,42.90
2018-09-17T15:35:06.845Z,42.90
2018-09-17T15:38:32.117Z,43.00
2018-09-17T15:41:56.671Z,43.20
2018-09-17T15:45:21.752Z,43.00
2018-09-17T15:48:46.410Z,42.60
2018-09-17T15:52:11.739Z,42.60
2018-09-17T15:55:36.460Z,42.40
2018-09-17T15:59:00.919Z,41.30
2018-09-17T16:02:25.429Z,40.70
2018-09-17T16:05:49.891Z,40.00
2018-09-17T16:09:14.297Z,40.40
2018-09-17T16:12:38.783Z,40.10
2018-09-17T16:16:03.223Z,39.50
2018-09-17T16:19:27.805Z,39.20
2018-09-17T16:22:52.236Z,38.60
2018-09-17T16:26:16.639Z,38.00
2018-09-17T16:29:41.174Z,37.70
2018-09-17T16:33:05.788Z,36.90
2018-09-17T16:36:30.460Z,36.30
2018-09-17T16:39:54.895Z,36.70
2018-09-17T16:43:19.709Z,36.20
2018-09-17T16:46:44.229Z,34.40
2018-09-17T16:50:09.883Z,32.60
2018-09-17T16:53:35.007Z,31.30
2018-09-17T16:57:00.307Z,30.30
2018-09-17T17:00:24.803Z,29.60
2018-09-17T17:03:49.732Z,29.10
2018-09-17T17:07:14.270Z,28.60
2018-09-17T17:10:39.627Z,28.20
2018-09-17T17:14:06.481Z,27.80
2018-09-17T17:17:31.273Z,27.40
2018-09-17T17:20:55.966Z,27.00
2018-09-17T17:24:22.330Z,26.60
2018-09-17T17:27:46.738Z,26.20
2018-09-17T17:31:11.205Z,25.80
2018-09-17T17:34:35.665Z,25.60
2018-09-17T17:38:00.116Z,25.10
2018-09-17T17:41:24.571Z,24.80
2018-09-17T17:44:48.981Z,24.40
2018-09-17T17:48:13.427Z,24.10
2018-09-17T17:51:38.009Z,23.80
2018-09-17T17:55:02.585Z,23.50
2018-09-17T17:58:27.157Z,23.20
2018-09-17T18:01:51.645Z,23.10
2018-09-17T18:05:16.105Z,22.80
2018-09-17T18:08:40.585Z,22.60
2018-09-17T18:12:05.134Z,22.40
2018-09-17T18:15:29.544Z,22.20
2018-09-17T18:18:54.715Z,22.00
2018-09-17T18:22:19.287Z,21.80
2018-09-17T18:25:43.814Z,21.70
2018-09-17T18:29:08.383Z,21.60
2018-09-17T18:32:33.098Z,21.40
2018-09-17T18:35:57.680Z,21.30
2018-09-17T18:39:22.239Z,21.10
2018-09-17T18:42:46.682Z,21.00
2018-09-17T18:46:11.795Z,20.80
2018-09-17T18:49:36.250Z,20.70
2018-09-17T18:53:02.199Z,20.50
2018-09-17T18:56:26.855Z,20.30
2018-09-17T18:59:52.410Z,20.20
2018-09-17T19:03:17.934Z,20.10
2018-09-17T19:06:43.221Z,20.10
2018-09-17T19:10:09.218Z,20.00
2018-09-17T19:13:34.071Z,19.90
2018-09-17T19:16:59.137Z,19.70
2018-09-17T19:20:24.828Z,19.60
2018-09-17T19:23:57.651Z,19.60
2018-09-17T19:27:27.639Z,19.50
2018-09-17T19:30:53.432Z,19.30
2018-09-17T19:34:19.427Z,19.30
2018-09-17T19:37:50.036Z,19.10
2018-09-17T19:41:15.285Z,19.00
2018-09-17T19:44:45.229Z,18.80
2018-09-17T19:48:10.191Z,18.80
2018-09-17T19:51:40.940Z,18.70
2018-09-17T19:55:05.969Z,18.60
2018-09-17T19:58:37.348Z,18.60
2018-09-17T20:02:02.598Z,18.50
2018-09-17T20:05:32.044Z,18.40
2018-09-17T20:08:56.756Z,18.40
2018-09-17T20:12:21.611Z,18.30
2018-09-17T20:15:46.124Z,18.30
2018-09-17T20:19:10.717Z,18.20
2018-09-17T20:22:35.835Z,18.10
2018-09-17T20:26:00.260Z,18.10
2018-09-17T20:29:24.815Z,18.10
2018-09-17T20:32:49.646Z,18.20
2018-09-17T20:36:14.164Z,18.10
2018-09-17T20:39:38.725Z,18.10
2018-09-17T20:43:03.164Z,18.10
2018-09-17T20:46:27.589Z,18.10
2018-09-17T20:49:52.042Z,18.00
2018-09-17T20:53:16.440Z,18.10
2018-09-17T20:56:40.902Z,18.20
2018-09-17T21:00:05.369Z,18.20
2018-09-17T21:03:29.837Z,18.40
2018-09-17T21:06:54.345Z,18.40
2018-09-17T21:10:18.684Z,18.50
2018-09-17T21:13:43.138Z,18.60
2018-09-17T21:17:07.594Z,18.60
2018-09-17T21:20:32.156Z,18.60
2018-09-17T21:23:56.566Z,18.60
2018-09-17T21:27:26.979Z,18.60
2018-09-17T21:30:51.421Z,18.70
2018-09-17T21:34:15.792Z,18.80
2018-09-17T21:37:40.343Z,18.80
2018-09-17T21:41:04.791Z,19.00
2018-09-17T21:44:29.254Z,19.00
2018-09-17T21:48:03.587Z,19.10
2018-09-17T21:51:28.024Z,19.10
2018-09-17T21:54:52.438Z,19.10
2018-09-17T21:58:17.051Z,19.00
2018-09-17T22:01:41.619Z,18.90
2018-09-17T22:05:07.171Z,18.70
2018-09-17T22:08:31.991Z,18.60
2018-09-17T22:11:56.470Z,18.40
2018-09-17T22:15:20.881Z,18.30
2018-09-17T22:18:45.267Z,18.30
2018-09-17T22:22:09.702Z,18.30
2018-09-17T22:25:34.219Z,18.30
2018-09-17T22:28:58.709Z,18.20
2018-09-17T22:32:23.121Z,18.20
2018-09-17T22:36:00.703Z,18.30
2018-09-17T22:39:25.089Z,18.30
2018-09-17T22:42:49.540Z,18.20
2018-09-17T22:46:14.004Z,18.10
2018-09-17T22:49:38.413Z,18.00
2018-09-17T22:53:02.882Z,17.90
2018-09-17T22:56:27.344Z,17.90
2018-09-17T22:59:51.752Z,17.80
2018-09-17T23:03:16.126Z,17.80
2018-09-17T23:06:40.556Z,17.80
2018-09-17T23:10:06.277Z,17.90
2018-09-17T23:13:30.768Z,17.90
2018-09-17T23:16:55.229Z,18.00
2018-09-17T23:20:19.669Z,18.10
2018-09-17T23:23:44.140Z,18.20
2018-09-17T23:27:08.559Z,18.30
2018-09-17T23:30:32.957Z,18.40
2018-09-17T23:33:57.390Z,18.50
2018-09-17T23:37:21.768Z,18.50
2018-09-17T23:40:46.243Z,18.50
2018-09-17T23:44:10.755Z,18.50
2018-09-17T23:47:35.221Z,18.50
2018-09-17T23:50:59.652Z,18.50
2018-09-17T23:54:24.124Z,18.50
2018-09-17T23:57:48.558Z,18.50
